sensor_id;sensor_type;location;lat;lon;timestamp;temperature;humidity
49549;DHT22;35450;44.518;7.466;2023-03-11T00:02:52;12.30;59.50
49549;DHT22;35450;44.518;7.466;2023-03-11T00:06:00;12.40;59.70
49549;DHT22;35450;44.518;7.466;2023-03-11T00:09:04;12.40;60.10
49549;DHT22;35450;44.518;7.466;2023-03-11T00:12:08;12.30;60.00
49549;DHT22;35450;44.518;7.466;2023-03-11T00:15:13;12.40;60.80
49549;DHT22;35450;44.518;7.466;2023-03-11T00:18:17;12.30;60.30
49549;DHT22;35450;44.518;7.466;2023-03-11T00:21:21;12.40;60.10
49549;DHT22;35450;44.518;7.466;2023-03-11T00:24:26;12.40;59.40
49549;DHT22;35450;44.518;7.466;2023-03-11T00:27:30;12.40;59.40
49549;DHT22;35450;44.518;7.466;2023-03-11T00:30:34;12.40;60.70
49549;DHT22;35450;44.518;7.466;2023-03-11T00:33:38;12.40;60.40
49549;DHT22;35450;44.518;7.466;2023-03-11T00:36:42;12.30;60.30
49549;DHT22;35450;44.518;7.466;2023-03-11T00:39:46;12.30;61.10
49549;DHT22;35450;44.518;7.466;2023-03-11T00:42:51;12.30;63.20
49549;DHT22;35450;44.518;7.466;2023-03-11T00:45:55;12.20;59.30
49549;DHT22;35450;44.518;7.466;2023-03-11T00:48:59;12.30;59.80
49549;DHT22;35450;44.518;7.466;2023-03-11T00:52:03;12.30;61.00
49549;DHT22;35450;44.518;7.466;2023-03-11T00:55:09;12.20;61.00
49549;DHT22;35450;44.518;7.466;2023-03-11T00:58:13;12.20;59.60
49549;DHT22;35450;44.518;7.466;2023-03-11T01:01:21;12.20;60.60
49549;DHT22;35450;44.518;7.466;2023-03-11T01:04:26;12.20;60.90
49549;DHT22;35450;44.518;7.466;2023-03-11T01:07:30;12.20;61.50
49549;DHT22;35450;44.518;7.466;2023-03-11T01:10:36;12.20;62.10
49549;DHT22;35450;44.518;7.466;2023-03-11T01:13:41;12.10;62.10
49549;DHT22;35450;44.518;7.466;2023-03-11T01:16:45;12.00;62.00
49549;DHT22;35450;44.518;7.466;2023-03-11T01:19:49;12.10;63.00
49549;DHT22;35450;44.518;7.466;2023-03-11T01:22:53;12.00;64.10
49549;DHT22;35450;44.518;7.466;2023-03-11T01:25:58;11.90;63.80
49549;DHT22;35450;44.518;7.466;2023-03-11T01:29:03;11.90;62.50
49549;DHT22;35450;44.518;7.466;2023-03-11T01:32:08;11.90;62.60
49549;DHT22;35450;44.518;7.466;2023-03-11T01:35:15;12.00;62.40
49549;DHT22;35450;44.518;7.466;2023-03-11T01:38:19;12.00;62.20
49549;DHT22;35450;44.518;7.466;2023-03-11T01:41:24;12.00;63.00
49549;DHT22;35450;44.518;7.466;2023-03-11T01:44:28;11.80;63.80
49549;DHT22;35450;44.518;7.466;2023-03-11T01:47:36;11.90;63.50
49549;DHT22;35450;44.518;7.466;2023-03-11T01:50:45;11.90;62.80
49549;DHT22;35450;44.518;7.466;2023-03-11T01:53:50;11.90;64.10
49549;DHT22;35450;44.518;7.466;2023-03-11T01:56:55;11.80;64.30
49549;DHT22;35450;44.518;7.466;2023-03-11T02:00:00;11.70;63.40
49549;DHT22;35450;44.518;7.466;2023-03-11T02:03:10;11.70;64.10
49549;DHT22;35450;44.518;7.466;2023-03-11T02:06:21;11.70;63.80
49549;DHT22;35450;44.518;7.466;2023-03-11T02:09:25;11.80;63.60
49549;DHT22;35450;44.518;7.466;2023-03-11T02:12:33;11.80;64.00
49549;DHT22;35450;44.518;7.466;2023-03-11T02:15:38;11.70;64.90
49549;DHT22;35450;44.518;7.466;2023-03-11T02:18:42;11.70;64.40
49549;DHT22;35450;44.518;7.466;2023-03-11T02:21:47;11.60;64.60
49549;DHT22;35450;44.518;7.466;2023-03-11T02:28:14;11.40;65.40
49549;DHT22;35450;44.518;7.466;2023-03-11T02:31:19;11.40;65.80
49549;DHT22;35450;44.518;7.466;2023-03-11T02:34:27;11.50;65.90
49549;DHT22;35450;44.518;7.466;2023-03-11T02:37:31;11.60;66.00
49549;DHT22;35450;44.518;7.466;2023-03-11T02:40:59;11.60;65.50
49549;DHT22;35450;44.518;7.466;2023-03-11T02:44:07;11.60;65.60
49549;DHT22;35450;44.518;7.466;2023-03-11T02:47:12;11.40;65.60
49549;DHT22;35450;44.518;7.466;2023-03-11T02:50:17;11.00;67.10
49549;DHT22;35450;44.518;7.466;2023-03-11T02:53:22;11.00;67.30
49549;DHT22;35450;44.518;7.466;2023-03-11T02:56:27;11.20;66.40
49549;DHT22;35450;44.518;7.466;2023-03-11T02:59:31;11.40;64.90
49549;DHT22;35450;44.518;7.466;2023-03-11T03:02:37;11.30;67.00
49549;DHT22;35450;44.518;7.466;2023-03-11T03:05:42;11.30;68.40
49549;DHT22;35450;44.518;7.466;2023-03-11T03:08:46;11.30;67.30
49549;DHT22;35450;44.518;7.466;2023-03-11T03:11:50;11.40;67.50
49549;DHT22;35450;44.518;7.466;2023-03-11T03:14:54;11.40;67.50
49549;DHT22;35450;44.518;7.466;2023-03-11T03:18:01;11.40;66.20
49549;DHT22;35450;44.518;7.466;2023-03-11T03:21:05;11.50;66.60
49549;DHT22;35450;44.518;7.466;2023-03-11T03:24:10;11.60;67.40
49549;DHT22;35450;44.518;7.466;2023-03-11T03:27:15;11.50;67.40
49549;DHT22;35450;44.518;7.466;2023-03-11T03:30:19;11.50;65.10
49549;DHT22;35450;44.518;7.466;2023-03-11T03:33:24;11.60;64.80
49549;DHT22;35450;44.518;7.466;2023-03-11T03:36:28;11.70;64.40
49549;DHT22;35450;44.518;7.466;2023-03-11T03:39:37;11.70;65.80
49549;DHT22;35450;44.518;7.466;2023-03-11T03:42:42;11.70;65.80
49549;DHT22;35450;44.518;7.466;2023-03-11T03:46:01;11.70;64.30
49549;DHT22;35450;44.518;7.466;2023-03-11T03:49:09;11.80;64.00
49549;DHT22;35450;44.518;7.466;2023-03-11T03:52:13;11.80;65.10
49549;DHT22;35450;44.518;7.466;2023-03-11T03:55:18;11.80;65.00
49549;DHT22;35450;44.518;7.466;2023-03-11T03:58:22;11.90;64.80
49549;DHT22;35450;44.518;7.466;2023-03-11T04:01:26;11.90;64.80
49549;DHT22;35450;44.518;7.466;2023-03-11T04:04:32;11.90;66.10
49549;DHT22;35450;44.518;7.466;2023-03-11T04:07:36;11.90;65.40
49549;DHT22;35450;44.518;7.466;2023-03-11T04:10:42;11.80;65.20
49549;DHT22;35450;44.518;7.466;2023-03-11T04:13:46;11.70;65.90
49549;DHT22;35450;44.518;7.466;2023-03-11T04:16:51;11.70;66.20
49549;DHT22;35450;44.518;7.466;2023-03-11T04:19:56;11.70;66.20
49549;DHT22;35450;44.518;7.466;2023-03-11T04:22:59;11.50;67.40
49549;DHT22;35450;44.518;7.466;2023-03-11T04:26:05;11.10;69.30
49549;DHT22;35450;44.518;7.466;2023-03-11T04:29:09;11.30;67.80
49549;DHT22;35450;44.518;7.466;2023-03-11T04:32:18;11.40;67.50
49549;DHT22;35450;44.518;7.466;2023-03-11T04:35:23;11.50;67.00
49549;DHT22;35450;44.518;7.466;2023-03-11T04:38:28;11.50;67.70
49549;DHT22;35450;44.518;7.466;2023-03-11T04:41:32;11.50;67.70
49549;DHT22;35450;44.518;7.466;2023-03-11T04:44:37;11.60;68.50
49549;DHT22;35450;44.518;7.466;2023-03-11T04:47:42;11.50;66.40
49549;DHT22;35450;44.518;7.466;2023-03-11T04:50:47;11.60;65.60
49549;DHT22;35450;44.518;7.466;2023-03-11T04:53:52;11.70;65.80
49549;DHT22;35450;44.518;7.466;2023-03-11T04:56:56;11.70;66.30
49549;DHT22;35450;44.518;7.466;2023-03-11T05:00:03;11.70;65.60
49549;DHT22;35450;44.518;7.466;2023-03-11T05:03:20;11.80;65.20
49549;DHT22;35450;44.518;7.466;2023-03-11T05:06:25;11.70;65.90
49549;DHT22;35450;44.518;7.466;2023-03-11T05:09:29;11.70;66.00
49549;DHT22;35450;44.518;7.466;2023-03-11T05:12:34;11.80;65.90
49549;DHT22;35450;44.518;7.466;2023-03-11T05:15:39;11.80;65.60
49549;DHT22;35450;44.518;7.466;2023-03-11T05:18:44;11.90;64.90
49549;DHT22;35450;44.518;7.466;2023-03-11T05:21:50;12.00;66.00
49549;DHT22;35450;44.518;7.466;2023-03-11T05:24:55;11.90;65.70
49549;DHT22;35450;44.518;7.466;2023-03-11T05:28:00;12.00;64.90
49549;DHT22;35450;44.518;7.466;2023-03-11T05:31:13;12.00;65.60
49549;DHT22;35450;44.518;7.466;2023-03-11T05:34:18;12.10;65.60
49549;DHT22;35450;44.518;7.466;2023-03-11T05:37:23;12.10;65.10
49549;DHT22;35450;44.518;7.466;2023-03-11T05:40:29;12.30;63.60
49549;DHT22;35450;44.518;7.466;2023-03-11T05:43:33;12.50;61.90
49549;DHT22;35450;44.518;7.466;2023-03-11T05:46:37;12.70;61.10
49549;DHT22;35450;44.518;7.466;2023-03-11T05:49:43;12.90;61.00
49549;DHT22;35450;44.518;7.466;2023-03-11T05:52:49;12.80;62.50
49549;DHT22;35450;44.518;7.466;2023-03-11T05:55:58;12.90;62.70
49549;DHT22;35450;44.518;7.466;2023-03-11T05:59:03;13.00;60.60
49549;DHT22;35450;44.518;7.466;2023-03-11T06:02:10;13.10;60.20
49549;DHT22;35450;44.518;7.466;2023-03-11T06:05:16;13.10;60.60
49549;DHT22;35450;44.518;7.466;2023-03-11T06:08:22;13.10;60.60
49549;DHT22;35450;44.518;7.466;2023-03-11T06:11:27;13.10;60.90
49549;DHT22;35450;44.518;7.466;2023-03-11T06:14:31;13.10;60.40
49549;DHT22;35450;44.518;7.466;2023-03-11T06:17:38;13.10;61.00
49549;DHT22;35450;44.518;7.466;2023-03-11T06:20:43;13.10;61.90
49549;DHT22;35450;44.518;7.466;2023-03-11T06:23:48;13.00;61.90
49549;DHT22;35450;44.518;7.466;2023-03-11T06:26:52;13.00;62.60
49549;DHT22;35450;44.518;7.466;2023-03-11T06:29:59;13.00;62.50
49549;DHT22;35450;44.518;7.466;2023-03-11T06:33:04;13.00;63.00
49549;DHT22;35450;44.518;7.466;2023-03-11T06:36:09;13.00;62.90
49549;DHT22;35450;44.518;7.466;2023-03-11T06:39:13;12.90;64.30
49549;DHT22;35450;44.518;7.466;2023-03-11T06:42:19;12.80;65.40
49549;DHT22;35450;44.518;7.466;2023-03-11T06:45:24;12.80;65.90
49549;DHT22;35450;44.518;7.466;2023-03-11T06:48:29;12.70;65.70
49549;DHT22;35450;44.518;7.466;2023-03-11T06:51:34;12.50;67.20
49549;DHT22;35450;44.518;7.466;2023-03-11T06:54:39;12.50;67.00
49549;DHT22;35450;44.518;7.466;2023-03-11T06:57:43;12.60;67.30
49549;DHT22;35450;44.518;7.466;2023-03-11T07:00:49;12.60;69.80
49549;DHT22;35450;44.518;7.466;2023-03-11T07:03:53;12.60;68.00
49549;DHT22;35450;44.518;7.466;2023-03-11T07:06:59;12.70;66.50
49549;DHT22;35450;44.518;7.466;2023-03-11T07:10:04;12.80;66.20
49549;DHT22;35450;44.518;7.466;2023-03-11T07:13:08;12.90;66.80
49549;DHT22;35450;44.518;7.466;2023-03-11T07:16:23;12.80;68.90
49549;DHT22;35450;44.518;7.466;2023-03-11T07:19:30;12.90;69.90
49549;DHT22;35450;44.518;7.466;2023-03-11T07:22:34;13.00;70.00
49549;DHT22;35450;44.518;7.466;2023-03-11T07:25:45;13.00;69.70
49549;DHT22;35450;44.518;7.466;2023-03-11T07:28:49;13.10;70.60
49549;DHT22;35450;44.518;7.466;2023-03-11T07:31:54;13.10;69.80
49549;DHT22;35450;44.518;7.466;2023-03-11T07:34:57;13.20;69.40
49549;DHT22;35450;44.518;7.466;2023-03-11T07:38:01;13.30;68.50
49549;DHT22;35450;44.518;7.466;2023-03-11T07:41:06;13.40;67.20
49549;DHT22;35450;44.518;7.466;2023-03-11T07:44:11;13.40;65.40
49549;DHT22;35450;44.518;7.466;2023-03-11T07:47:16;13.50;65.00
49549;DHT22;35450;44.518;7.466;2023-03-11T07:50:20;13.60;65.70
49549;DHT22;35450;44.518;7.466;2023-03-11T07:53:25;13.70;64.80
49549;DHT22;35450;44.518;7.466;2023-03-11T07:56:31;13.70;69.00
49549;DHT22;35450;44.518;7.466;2023-03-11T07:59:35;13.80;71.30
49549;DHT22;35450;44.518;7.466;2023-03-11T08:02:39;13.80;70.70
49549;DHT22;35450;44.518;7.466;2023-03-11T08:05:43;13.90;68.80
49549;DHT22;35450;44.518;7.466;2023-03-11T08:08:49;13.90;68.70
49549;DHT22;35450;44.518;7.466;2023-03-11T08:11:53;13.90;68.30
49549;DHT22;35450;44.518;7.466;2023-03-11T08:14:57;14.00;67.80
49549;DHT22;35450;44.518;7.466;2023-03-11T08:18:02;14.10;68.50
49549;DHT22;35450;44.518;7.466;2023-03-11T08:21:08;14.20;70.30
49549;DHT22;35450;44.518;7.466;2023-03-11T08:24:13;14.30;72.20
49549;DHT22;35450;44.518;7.466;2023-03-11T08:27:17;14.20;74.30
49549;DHT22;35450;44.518;7.466;2023-03-11T08:30:21;14.20;71.70
49549;DHT22;35450;44.518;7.466;2023-03-11T08:33:26;14.20;72.80
49549;DHT22;35450;44.518;7.466;2023-03-11T08:36:31;14.20;72.30
49549;DHT22;35450;44.518;7.466;2023-03-11T08:39:35;14.20;71.50
49549;DHT22;35450;44.518;7.466;2023-03-11T08:42:39;14.20;69.70
49549;DHT22;35450;44.518;7.466;2023-03-11T08:45:43;14.30;67.50
49549;DHT22;35450;44.518;7.466;2023-03-11T08:48:47;14.30;67.10
49549;DHT22;35450;44.518;7.466;2023-03-11T08:51:51;14.40;68.00
49549;DHT22;35450;44.518;7.466;2023-03-11T08:54:55;14.40;68.60
49549;DHT22;35450;44.518;7.466;2023-03-11T08:57:59;14.50;68.90
49549;DHT22;35450;44.518;7.466;2023-03-11T09:01:04;14.50;68.80
49549;DHT22;35450;44.518;7.466;2023-03-11T09:04:09;14.50;68.90
49549;DHT22;35450;44.518;7.466;2023-03-11T09:07:14;14.50;68.50
49549;DHT22;35450;44.518;7.466;2023-03-11T09:10:19;14.60;67.90
49549;DHT22;35450;44.518;7.466;2023-03-11T09:13:23;14.60;68.00
49549;DHT22;35450;44.518;7.466;2023-03-11T09:16:27;14.70;68.70
49549;DHT22;35450;44.518;7.466;2023-03-11T09:19:31;14.80;69.90
49549;DHT22;35450;44.518;7.466;2023-03-11T09:22:35;14.80;71.90
49549;DHT22;35450;44.518;7.466;2023-03-11T09:25:39;14.90;73.40
49549;DHT22;35450;44.518;7.466;2023-03-11T09:28:43;14.90;74.90
49549;DHT22;35450;44.518;7.466;2023-03-11T09:31:51;14.90;75.80
49549;DHT22;35450;44.518;7.466;2023-03-11T09:34:55;14.90;77.60
49549;DHT22;35450;44.518;7.466;2023-03-11T09:38:00;14.90;76.70
49549;DHT22;35450;44.518;7.466;2023-03-11T09:48:23;14.90;71.40
49549;DHT22;35450;44.518;7.466;2023-03-11T09:51:33;14.90;70.30
49549;DHT22;35450;44.518;7.466;2023-03-11T09:54:46;14.90;72.10
49549;DHT22;35450;44.518;7.466;2023-03-11T09:57:51;14.90;71.40
49549;DHT22;35450;44.518;7.466;2023-03-11T10:00:56;14.90;70.50
49549;DHT22;35450;44.518;7.466;2023-03-11T10:04:12;14.90;71.10
49549;DHT22;35450;44.518;7.466;2023-03-11T10:07:20;14.90;69.80
49549;DHT22;35450;44.518;7.466;2023-03-11T10:10:32;15.00;70.40
49549;DHT22;35450;44.518;7.466;2023-03-11T10:13:50;15.00;69.30
49549;DHT22;35450;44.518;7.466;2023-03-11T10:27:18;15.10;74.80
49549;DHT22;35450;44.518;7.466;2023-03-11T10:30:39;15.00;71.30
49549;DHT22;35450;44.518;7.466;2023-03-11T10:33:53;15.10;71.40
49549;DHT22;35450;44.518;7.466;2023-03-11T10:37:23;15.00;73.40
49549;DHT22;35450;44.518;7.466;2023-03-11T10:40:36;15.00;74.20
49549;DHT22;35450;44.518;7.466;2023-03-11T10:44:06;15.10;75.30
49549;DHT22;35450;44.518;7.466;2023-03-11T10:47:21;15.20;74.40
49549;DHT22;35450;44.518;7.466;2023-03-11T10:50:25;15.30;75.10
49549;DHT22;35450;44.518;7.466;2023-03-11T10:53:30;15.30;74.20
49549;DHT22;35450;44.518;7.466;2023-03-11T11:00:00;15.30;74.20
49549;DHT22;35450;44.518;7.466;2023-03-11T11:03:14;15.30;74.10
49549;DHT22;35450;44.518;7.466;2023-03-11T11:06:34;15.30;74.20
49549;DHT22;35450;44.518;7.466;2023-03-11T11:09:38;15.30;73.90
49549;DHT22;35450;44.518;7.466;2023-03-11T11:19:19;15.40;74.30
49549;DHT22;35450;44.518;7.466;2023-03-11T11:22:24;15.40;73.70
49549;DHT22;35450;44.518;7.466;2023-03-11T11:28:32;15.50;73.00
49549;DHT22;35450;44.518;7.466;2023-03-11T11:31:39;15.60;74.00
49549;DHT22;35450;44.518;7.466;2023-03-11T11:34:54;15.60;73.00
49549;DHT22;35450;44.518;7.466;2023-03-11T11:38:01;15.70;72.80
49549;DHT22;35450;44.518;7.466;2023-03-11T11:41:12;15.80;73.40
49549;DHT22;35450;44.518;7.466;2023-03-11T11:44:20;15.80;73.10
49549;DHT22;35450;44.518;7.466;2023-03-11T11:47:33;15.80;73.30
49549;DHT22;35450;44.518;7.466;2023-03-11T11:50:52;15.90;73.10
49549;DHT22;35450;44.518;7.466;2023-03-11T11:54:06;15.90;73.50
49549;DHT22;35450;44.518;7.466;2023-03-11T11:57:17;15.90;74.60
49549;DHT22;35450;44.518;7.466;2023-03-11T12:00:33;15.90;74.40
49549;DHT22;35450;44.518;7.466;2023-03-11T12:07:16;16.10;74.30
49549;DHT22;35450;44.518;7.466;2023-03-11T12:13:48;16.30;75.00
49549;DHT22;35450;44.518;7.466;2023-03-11T12:16:57;16.20;74.40
49549;DHT22;35450;44.518;7.466;2023-03-11T12:20:35;16.30;74.60
49549;DHT22;35450;44.518;7.466;2023-03-11T12:31:02;16.30;75.20
49549;DHT22;35450;44.518;7.466;2023-03-11T12:34:10;16.30;75.40
49549;DHT22;35450;44.518;7.466;2023-03-11T12:37:20;16.20;75.40
49549;DHT22;35450;44.518;7.466;2023-03-11T12:50:37;16.40;74.90
49549;DHT22;35450;44.518;7.466;2023-03-11T12:53:47;16.40;75.00
49549;DHT22;35450;44.518;7.466;2023-03-11T12:56:59;16.50;75.20
49549;DHT22;35450;44.518;7.466;2023-03-11T13:03:56;16.50;74.70
49549;DHT22;35450;44.518;7.466;2023-03-11T13:10:39;16.70;75.30
49549;DHT22;35450;44.518;7.466;2023-03-11T13:13:43;16.70;75.20
49549;DHT22;35450;44.518;7.466;2023-03-11T13:16:47;16.70;74.40
49549;DHT22;35450;44.518;7.466;2023-03-11T13:19:58;16.70;74.20
49549;DHT22;35450;44.518;7.466;2023-03-11T13:29:55;17.00;74.10
49549;DHT22;35450;44.518;7.466;2023-03-11T13:43:00;17.60;71.50
49549;DHT22;35450;44.518;7.466;2023-03-11T13:50:33;17.90;67.40
49549;DHT22;35450;44.518;7.466;2023-03-11T13:53:09;18.10;59.90
49549;DHT22;35450;44.518;7.466;2023-03-11T13:56:23;18.30;57.90
49549;DHT22;35450;44.518;7.466;2023-03-11T13:59:33;18.40;57.10
49549;DHT22;35450;44.518;7.466;2023-03-11T14:02:37;18.50;56.70
49549;DHT22;35450;44.518;7.466;2023-03-11T14:05:48;18.60;58.10
49549;DHT22;35450;44.518;7.466;2023-03-11T14:08:54;18.80;57.20
49549;DHT22;35450;44.518;7.466;2023-03-11T14:12:06;19.60;53.40
49549;DHT22;35450;44.518;7.466;2023-03-11T14:15:23;19.80;54.70
49549;DHT22;35450;44.518;7.466;2023-03-11T14:18:31;19.60;52.70
49549;DHT22;35450;44.518;7.466;2023-03-11T14:21:35;19.60;52.30
49549;DHT22;35450;44.518;7.466;2023-03-11T14:24:39;19.80;52.10
49549;DHT22;35450;44.518;7.466;2023-03-11T14:27:57;20.00;52.10
49549;DHT22;35450;44.518;7.466;2023-03-11T14:31:02;20.40;52.00
49549;DHT22;35450;44.518;7.466;2023-03-11T14:34:17;20.40;52.90
49549;DHT22;35450;44.518;7.466;2023-03-11T14:37:36;20.20;52.60
49549;DHT22;35450;44.518;7.466;2023-03-11T14:40:40;20.10;53.80
49549;DHT22;35450;44.518;7.466;2023-03-11T14:43:47;20.10;53.00
49549;DHT22;35450;44.518;7.466;2023-03-11T14:46:57;20.10;52.60
49549;DHT22;35450;44.518;7.466;2023-03-11T14:50:08;20.00;53.30
49549;DHT22;35450;44.518;7.466;2023-03-11T14:53:32;20.20;52.50
49549;DHT22;35450;44.518;7.466;2023-03-11T14:56:39;20.30;52.80
49549;DHT22;35450;44.518;7.466;2023-03-11T14:59:48;20.30;52.50
49549;DHT22;35450;44.518;7.466;2023-03-11T15:03:00;20.50;51.70
49549;DHT22;35450;44.518;7.466;2023-03-11T15:06:15;20.50;51.80
49549;DHT22;35450;44.518;7.466;2023-03-11T15:09:21;20.50;52.50
49549;DHT22;35450;44.518;7.466;2023-03-11T15:12:34;20.40;53.20
49549;DHT22;35450;44.518;7.466;2023-03-11T15:15:40;20.50;52.70
49549;DHT22;35450;44.518;7.466;2023-03-11T15:18:43;20.40;53.20
49549;DHT22;35450;44.518;7.466;2023-03-11T15:21:49;20.50;55.30
49549;DHT22;35450;44.518;7.466;2023-03-11T15:24:58;20.70;53.40
49549;DHT22;35450;44.518;7.466;2023-03-11T15:28:33;20.70;52.70
49549;DHT22;35450;44.518;7.466;2023-03-11T15:31:44;20.70;53.30
49549;DHT22;35450;44.518;7.466;2023-03-11T15:38:20;20.70;52.80
49549;DHT22;35450;44.518;7.466;2023-03-11T15:41:26;20.80;52.60
49549;DHT22;35450;44.518;7.466;2023-03-11T15:47:39;20.70;52.80
49549;DHT22;35450;44.518;7.466;2023-03-11T15:51:01;20.80;52.20
49549;DHT22;35450;44.518;7.466;2023-03-11T15:54:05;20.80;52.80
49549;DHT22;35450;44.518;7.466;2023-03-11T15:57:20;20.70;53.00
49549;DHT22;35450;44.518;7.466;2023-03-11T16:00:25;20.70;53.20
49549;DHT22;35450;44.518;7.466;2023-03-11T16:03:29;20.80;52.70
49549;DHT22;35450;44.518;7.466;2023-03-11T16:06:34;20.90;52.20
49549;DHT22;35450;44.518;7.466;2023-03-11T16:09:38;20.90;50.70
49549;DHT22;35450;44.518;7.466;2023-03-11T16:12:42;21.00;52.50
49549;DHT22;35450;44.518;7.466;2023-03-11T16:15:46;21.00;51.10
49549;DHT22;35450;44.518;7.466;2023-03-11T16:18:50;20.90;51.10
49549;DHT22;35450;44.518;7.466;2023-03-11T16:21:55;20.90;51.40
49549;DHT22;35450;44.518;7.466;2023-03-11T16:24:59;20.90;51.00
49549;DHT22;35450;44.518;7.466;2023-03-11T16:28:05;20.80;51.00
49549;DHT22;35450;44.518;7.466;2023-03-11T16:31:09;20.80;50.30
49549;DHT22;35450;44.518;7.466;2023-03-11T16:34:13;20.80;50.50
49549;DHT22;35450;44.518;7.466;2023-03-11T16:37:17;20.70;51.30
49549;DHT22;35450;44.518;7.466;2023-03-11T16:40:26;20.40;53.00
49549;DHT22;35450;44.518;7.466;2023-03-11T16:43:31;20.20;51.30
49549;DHT22;35450;44.518;7.466;2023-03-11T16:46:35;20.00;51.70
49549;DHT22;35450;44.518;7.466;2023-03-11T16:49:39;19.90;51.90
49549;DHT22;35450;44.518;7.466;2023-03-11T16:52:43;19.70;52.30
49549;DHT22;35450;44.518;7.466;2023-03-11T16:55:47;19.60;52.50
49549;DHT22;35450;44.518;7.466;2023-03-11T16:58:51;19.40;54.20
49549;DHT22;35450;44.518;7.466;2023-03-11T17:01:55;19.30;53.10
49549;DHT22;35450;44.518;7.466;2023-03-11T17:04:59;19.40;52.20
49549;DHT22;35450;44.518;7.466;2023-03-11T17:08:04;19.40;52.50
49549;DHT22;35450;44.518;7.466;2023-03-11T17:11:20;19.30;52.60
49549;DHT22;35450;44.518;7.466;2023-03-11T17:14:24;19.30;52.40
49549;DHT22;35450;44.518;7.466;2023-03-11T17:17:28;19.30;51.90
49549;DHT22;35450;44.518;7.466;2023-03-11T17:20:32;19.20;52.10
49549;DHT22;35450;44.518;7.466;2023-03-11T17:23:36;19.10;52.30
49549;DHT22;35450;44.518;7.466;2023-03-11T17:26:40;19.10;52.90
49549;DHT22;35450;44.518;7.466;2023-03-11T17:29:44;19.00;52.60
49549;DHT22;35450;44.518;7.466;2023-03-11T17:32:48;19.00;52.50
49549;DHT22;35450;44.518;7.466;2023-03-11T17:36:04;19.00;52.80
49549;DHT22;35450;44.518;7.466;2023-03-11T17:39:08;18.90;53.70
49549;DHT22;35450;44.518;7.466;2023-03-11T17:42:12;18.90;53.30
49549;DHT22;35450;44.518;7.466;2023-03-11T17:45:16;18.70;54.10
49549;DHT22;35450;44.518;7.466;2023-03-11T17:48:20;18.70;53.20
49549;DHT22;35450;44.518;7.466;2023-03-11T17:51:24;18.70;54.00
49549;DHT22;35450;44.518;7.466;2023-03-11T17:54:28;18.60;54.20
49549;DHT22;35450;44.518;7.466;2023-03-11T17:57:32;18.60;53.90
49549;DHT22;35450;44.518;7.466;2023-03-11T18:00:36;18.50;54.30
49549;DHT22;35450;44.518;7.466;2023-03-11T18:03:40;18.40;54.60
49549;DHT22;35450;44.518;7.466;2023-03-11T18:06:44;18.30;54.80
49549;DHT22;35450;44.518;7.466;2023-03-11T18:09:52;18.20;55.20
49549;DHT22;35450;44.518;7.466;2023-03-11T18:12:56;18.10;55.50
49549;DHT22;35450;44.518;7.466;2023-03-11T18:19:12;17.90;57.00
49549;DHT22;35450;44.518;7.466;2023-03-11T18:22:16;17.80;57.80
49549;DHT22;35450;44.518;7.466;2023-03-11T18:25:20;17.60;58.50
49549;DHT22;35450;44.518;7.466;2023-03-11T18:28:24;17.50;59.00
49549;DHT22;35450;44.518;7.466;2023-03-11T18:31:29;17.50;59.40
49549;DHT22;35450;44.518;7.466;2023-03-11T18:34:33;17.40;59.50
49549;DHT22;35450;44.518;7.466;2023-03-11T18:37:37;17.30;60.20
49549;DHT22;35450;44.518;7.466;2023-03-11T18:40:41;17.10;60.20
49549;DHT22;35450;44.518;7.466;2023-03-11T18:43:45;17.10;60.00
49549;DHT22;35450;44.518;7.466;2023-03-11T18:46:49;17.00;61.00
49549;DHT22;35450;44.518;7.466;2023-03-11T18:49:53;16.80;61.50
49549;DHT22;35450;44.518;7.466;2023-03-11T18:52:57;16.60;61.00
49549;DHT22;35450;44.518;7.466;2023-03-11T18:56:06;16.40;61.70
49549;DHT22;35450;44.518;7.466;2023-03-11T18:59:10;16.10;61.50
49549;DHT22;35450;44.518;7.466;2023-03-11T19:02:15;16.20;62.40
49549;DHT22;35450;44.518;7.466;2023-03-11T19:05:20;16.20;62.80
49549;DHT22;35450;44.518;7.466;2023-03-11T19:08:23;16.30;62.50
49549;DHT22;35450;44.518;7.466;2023-03-11T19:11:29;16.30;61.90
49549;DHT22;35450;44.518;7.466;2023-03-11T19:14:34;16.30;62.10
49549;DHT22;35450;44.518;7.466;2023-03-11T19:17:38;16.30;62.00
49549;DHT22;35450;44.518;7.466;2023-03-11T19:20:42;16.30;61.90
49549;DHT22;35450;44.518;7.466;2023-03-11T19:23:45;16.30;61.80
49549;DHT22;35450;44.518;7.466;2023-03-11T19:26:49;16.30;62.40
49549;DHT22;35450;44.518;7.466;2023-03-11T19:29:54;16.30;60.80
49549;DHT22;35450;44.518;7.466;2023-03-11T19:32:58;16.40;60.40
49549;DHT22;35450;44.518;7.466;2023-03-11T19:36:04;16.40;60.70
49549;DHT22;35450;44.518;7.466;2023-03-11T19:39:08;16.40;61.40
49549;DHT22;35450;44.518;7.466;2023-03-11T19:42:12;16.20;61.20
49549;DHT22;35450;44.518;7.466;2023-03-11T19:45:16;16.30;60.90
49549;DHT22;35450;44.518;7.466;2023-03-11T19:48:20;16.30;61.60
49549;DHT22;35450;44.518;7.466;2023-03-11T19:51:24;16.30;62.00
49549;DHT22;35450;44.518;7.466;2023-03-11T19:54:28;16.30;62.80
49549;DHT22;35450;44.518;7.466;2023-03-11T19:57:32;16.00;63.60
49549;DHT22;35450;44.518;7.466;2023-03-11T20:00:36;16.00;64.70
49549;DHT22;35450;44.518;7.466;2023-03-11T20:03:41;15.90;65.20
49549;DHT22;35450;44.518;7.466;2023-03-11T20:06:46;15.80;65.40
49549;DHT22;35450;44.518;7.466;2023-03-11T20:09:50;15.70;65.40
49549;DHT22;35450;44.518;7.466;2023-03-11T20:12:54;15.80;65.40
49549;DHT22;35450;44.518;7.466;2023-03-11T20:16:07;15.70;65.60
49549;DHT22;35450;44.518;7.466;2023-03-11T20:19:11;15.60;65.40
49549;DHT22;35450;44.518;7.466;2023-03-11T20:22:15;15.50;65.50
49549;DHT22;35450;44.518;7.466;2023-03-11T20:25:19;15.50;65.60
49549;DHT22;35450;44.518;7.466;2023-03-11T20:28:23;15.40;66.10
49549;DHT22;35450;44.518;7.466;2023-03-11T20:31:28;15.40;65.00
49549;DHT22;35450;44.518;7.466;2023-03-11T20:34:32;15.40;64.90
49549;DHT22;35450;44.518;7.466;2023-03-11T20:37:36;15.40;64.80
49549;DHT22;35450;44.518;7.466;2023-03-11T20:40:40;15.30;65.10
49549;DHT22;35450;44.518;7.466;2023-03-11T20:43:44;15.40;65.50
49549;DHT22;35450;44.518;7.466;2023-03-11T20:46:48;15.30;65.50
49549;DHT22;35450;44.518;7.466;2023-03-11T20:49:52;15.30;65.70
49549;DHT22;35450;44.518;7.466;2023-03-11T20:52:56;15.30;66.10
49549;DHT22;35450;44.518;7.466;2023-03-11T20:56:06;15.20;66.40
49549;DHT22;35450;44.518;7.466;2023-03-11T20:59:12;15.20;66.40
49549;DHT22;35450;44.518;7.466;2023-03-11T21:02:20;15.10;66.50
49549;DHT22;35450;44.518;7.466;2023-03-11T21:05:24;15.20;66.80
49549;DHT22;35450;44.518;7.466;2023-03-11T21:08:28;15.10;66.80
49549;DHT22;35450;44.518;7.466;2023-03-11T21:11:32;15.10;66.90
49549;DHT22;35450;44.518;7.466;2023-03-11T21:14:37;15.10;67.30